sensor_id;sensor_type;location;lat;lon;timestamp;pressure;altitude;pressure_sealevel;temperature;humidity
3812;BME280;1921;49.368;11.068;2023-05-12T00:01:06;97448.72;;;10.97;100.00
3812;BME280;1921;49.368;11.068;2023-05-12T00:03:32;97474.53;;;11.28;100.00
3812;BME280;1921;49.368;11.068;2023-05-12T00:06:00;97470.59;;;11.32;100.00
3812;BME280;1921;49.368;11.068;2023-05-12T00:08:28;97450.53;;;11.18;100.00
3812;BME280;1921;49.368;11.068;2023-05-12T00:10:54;97387.28;;;10.58;100.00
3812;BME280;1921;49.368;11.068;2023-05-12T00:13:20;97478.00;;;11.14;100.00
3812;BME280;1921;49.368;11.068;2023-05-12T00:15:48;97488.66;;;11.33;100.00
3812;BME280;1921;49.368;11.068;2023-05-12T00:18:15;97457.56;;;11.17;100.00
3812;BME280;1921;49.368;11.068;2023-05-12T00:20:40;97430.16;;;11.07;100.00
3812;BME280;1921;49.368;11.068;2023-05-12T00:23:06;97391.44;;;10.89;100.00
3812;BME280;1921;49.368;11.068;2023-05-12T00:25:33;97454.13;;;11.17;100.00
3812;BME280;1921;49.368;11.068;2023-05-12T00:27:58;97442.56;;;11.04;100.00
3812;BME280;1921;49.368;11.068;2023-05-12T00:30:24;97434.66;;;10.98;100.00
3812;BME280;1921;49.368;11.068;2023-05-12T00:32:50;97418.69;;;10.86;100.00
3812;BME280;1921;49.368;11.068;2023-05-12T00:35:16;97445.09;;;10.98;100.00
3812;BME280;1921;49.368;11.068;2023-05-12T00:37:42;97406.13;;;10.60;100.00
3812;BME280;1921;49.368;11.068;2023-05-12T00:40:08;97458.41;;;11.03;100.00
3812;BME280;1921;49.368;11.068;2023-05-12T00:42:35;97451.84;;;11.07;100.00
3812;BME280;1921;49.368;11.068;2023-05-12T00:45:01;97445.28;;;10.96;100.00
3812;BME280;1921;49.368;11.068;2023-05-12T00:47:27;97429.84;;;10.80;100.00
3812;BME280;1921;49.368;11.068;2023-05-12T00:49:53;97434.97;;;10.73;100.00
3812;BME280;1921;49.368;11.068;2023-05-12T00:52:19;97474.00;;;10.96;100.00
3812;BME280;1921;49.368;11.068;2023-05-12T00:54:47;97415.84;;;10.66;100.00
3812;BME280;1921;49.368;11.068;2023-05-12T00:57:13;97460.91;;;11.11;100.00
3812;BME280;1921;49.368;11.068;2023-05-12T00:59:39;97469.66;;;11.03;100.00
3812;BME280;1921;49.368;11.068;2023-05-12T01:02:05;97428.75;;;10.89;100.00
3812;BME280;1921;49.368;11.068;2023-05-12T01:04:32;97420.63;;;10.99;100.00
3812;BME280;1921;49.368;11.068;2023-05-12T01:07:14;97420.97;;;10.60;100.00
3812;BME280;1921;49.368;11.068;2023-05-12T01:09:42;97435.81;;;10.59;100.00
3812;BME280;1921;49.368;11.068;2023-05-12T01:12:08;97386.47;;;10.28;100.00
3812;BME280;1921;49.368;11.068;2023-05-12T01:14:34;97465.03;;;10.69;100.00
3812;BME280;1921;49.368;11.068;2023-05-12T01:17:02;97415.50;;;10.40;100.00
3812;BME280;1921;49.368;11.068;2023-05-12T01:19:42;97469.78;;;10.81;100.00
3812;BME280;1921;49.368;11.068;2023-05-12T01:22:10;97465.63;;;10.86;100.00
3812;BME280;1921;49.368;11.068;2023-05-12T01:24:51;97447.38;;;10.86;100.00
3812;BME280;1921;49.368;11.068;2023-05-12T01:27:21;97421.84;;;10.82;100.00
3812;BME280;1921;49.368;11.068;2023-05-12T01:29:48;97456.78;;;11.02;100.00
3812;BME280;1921;49.368;11.068;2023-05-12T01:32:16;97412.78;;;10.77;100.00
3812;BME280;1921;49.368;11.068;2023-05-12T01:34:43;97455.81;;;11.03;100.00
3812;BME280;1921;49.368;11.068;2023-05-12T01:37:10;97424.69;;;10.87;100.00
3812;BME280;1921;49.368;11.068;2023-05-12T01:39:36;97451.59;;;11.02;100.00
3812;BME280;1921;49.368;11.068;2023-05-12T01:42:03;97440.81;;;11.12;100.00
3812;BME280;1921;49.368;11.068;2023-05-12T01:44:29;97404.81;;;11.00;100.00
3812;BME280;1921;49.368;11.068;2023-05-12T01:46:56;97441.34;;;11.22;100.00
3812;BME280;1921;49.368;11.068;2023-05-12T01:49:22;97409.50;;;11.12;100.00
3812;BME280;1921;49.368;11.068;2023-05-12T01:51:48;97409.59;;;11.18;100.00
3812;BME280;1921;49.368;11.068;2023-05-12T01:54:13;97442.72;;;11.39;100.00
3812;BME280;1921;49.368;11.068;2023-05-12T01:56:39;97416.75;;;11.31;100.00
3812;BME280;1921;49.368;11.068;2023-05-12T01:59:05;97407.28;;;11.30;100.00
3812;BME280;1921;49.368;11.068;2023-05-12T02:01:31;97410.16;;;11.35;100.00
3812;BME280;1921;49.368;11.068;2023-05-12T02:03:58;97438.69;;;11.58;100.00
3812;BME280;1921;49.368;11.068;2023-05-12T02:06:24;97439.75;;;11.64;100.00
3812;BME280;1921;49.368;11.068;2023-05-12T02:08:50;97433.78;;;11.70;100.00
3812;BME280;1921;49.368;11.068;2023-05-12T02:11:16;97414.38;;;11.57;100.00
3812;BME280;1921;49.368;11.068;2023-05-12T02:13:42;97412.75;;;11.56;100.00
3812;BME280;1921;49.368;11.068;2023-05-12T02:16:11;97393.06;;;11.32;100.00
3812;BME280;1921;49.368;11.068;2023-05-12T02:18:37;97404.31;;;11.33;100.00
3812;BME280;1921;49.368;11.068;2023-05-12T02:21:03;97401.31;;;11.15;100.00
3812;BME280;1921;49.368;11.068;2023-05-12T02:23:29;97429.28;;;11.21;100.00
3812;BME280;1921;49.368;11.068;2023-05-12T02:25:54;97445.41;;;11.24;100.00
3812;BME280;1921;49.368;11.068;2023-05-12T02:28:20;97415.09;;;10.87;100.00
3812;BME280;1921;49.368;11.068;2023-05-12T02:30:48;97300.84;;;10.10;100.00
3812;BME280;1921;49.368;11.068;2023-05-12T02:33:15;97401.16;;;10.80;100.00
3812;BME280;1921;49.368;11.068;2023-05-12T02:35:42;97428.22;;;10.94;100.00
3812;BME280;1921;49.368;11.068;2023-05-12T02:38:08;97411.97;;;10.77;100.00
3812;BME280;1921;49.368;11.068;2023-05-12T02:40:34;97453.91;;;10.97;100.00
3812;BME280;1921;49.368;11.068;2023-05-12T02:42:59;97392.56;;;10.65;100.00
3812;BME280;1921;49.368;11.068;2023-05-12T02:45:26;97408.75;;;10.75;100.00
3812;BME280;1921;49.368;11.068;2023-05-12T02:47:51;97416.06;;;10.86;100.00
3812;BME280;1921;49.368;11.068;2023-05-12T02:50:17;97447.44;;;11.08;100.00
3812;BME280;1921;49.368;11.068;2023-05-12T02:52:43;97432.31;;;11.03;100.00
3812;BME280;1921;49.368;11.068;2023-05-12T02:55:08;97411.63;;;11.01;100.00
3812;BME280;1921;49.368;11.068;2023-05-12T02:57:34;97371.84;;;10.78;100.00
3812;BME280;1921;49.368;11.068;2023-05-12T03:00:01;97395.72;;;10.96;100.00
3812;BME280;1921;49.368;11.068;2023-05-12T03:02:35;97409.16;;;11.15;100.00
3812;BME280;1921;49.368;11.068;2023-05-12T03:05:02;97416.75;;;11.31;100.00
3812;BME280;1921;49.368;11.068;2023-05-12T03:07:28;97439.69;;;11.57;100.00
3812;BME280;1921;49.368;11.068;2023-05-12T03:09:54;97395.69;;;11.32;100.00
3812;BME280;1921;49.368;11.068;2023-05-12T03:12:20;97402.72;;;11.32;100.00
3812;BME280;1921;49.368;11.068;2023-05-12T03:14:45;97413.63;;;11.42;100.00
3812;BME280;1921;49.368;11.068;2023-05-12T03:17:12;97356.16;;;11.14;100.00
3812;BME280;1921;49.368;11.068;2023-05-12T03:19:37;97381.31;;;11.22;100.00
3812;BME280;1921;49.368;11.068;2023-05-12T03:22:04;97424.75;;;11.51;100.00
3812;BME280;1921;49.368;11.068;2023-05-12T03:24:32;97379.50;;;11.22;100.00
3812;BME280;1921;49.368;11.068;2023-05-12T03:26:58;97384.19;;;11.27;100.00
3812;BME280;1921;49.368;11.068;2023-05-12T03:29:24;97384.19;;;11.27;100.00
3812;BME280;1921;49.368;11.068;2023-05-12T03:31:51;97374.84;;;11.18;100.00
3812;BME280;1921;49.368;11.068;2023-05-12T03:34:17;97418.47;;;11.45;100.00
3812;BME280;1921;49.368;11.068;2023-05-12T03:36:43;97381.06;;;11.17;100.00
3812;BME280;1921;49.368;11.068;2023-05-12T03:39:10;97395.63;;;11.26;100.00
3812;BME280;1921;49.368;11.068;2023-05-12T03:41:37;97399.78;;;11.20;100.00
3812;BME280;1921;49.368;11.068;2023-05-12T03:44:04;97370.75;;;10.87;100.00
3812;BME280;1921;49.368;11.068;2023-05-12T03:46:33;97380.72;;;10.84;100.00
3812;BME280;1921;49.368;11.068;2023-05-12T03:48:59;97390.41;;;10.68;100.00
3812;BME280;1921;49.368;11.068;2023-05-12T03:51:25;97404.00;;;10.64;100.00
3812;BME280;1921;49.368;11.068;2023-05-12T03:53:52;97415.84;;;10.66;100.00
3812;BME280;1921;49.368;11.068;2023-05-12T03:56:18;97373.88;;;10.46;100.00
3812;BME280;1921;49.368;11.068;2023-05-12T03:58:43;97372.44;;;10.59;100.00
3812;BME280;1921;49.368;11.068;2023-05-12T04:01:11;97354.97;;;10.59;100.00
3812;BME280;1921;49.368;11.068;2023-05-12T04:03:37;97431.69;;;11.01;100.00
3812;BME280;1921;49.368;11.068;2023-05-12T04:06:05;97424.22;;;10.98;100.00
3812;BME280;1921;49.368;11.068;2023-05-12T04:08:31;97401.41;;;10.85;100.00
3812;BME280;1921;49.368;11.068;2023-05-12T04:10:59;97400.41;;;10.86;100.00
3812;BME280;1921;49.368;11.068;2023-05-12T04:13:26;97412.72;;;10.92;100.00
3812;BME280;1921;49.368;11.068;2023-05-12T04:15:59;97383.03;;;10.57;100.00
3812;BME280;1921;49.368;11.068;2023-05-12T04:18:26;97419.16;;;10.75;100.00
3812;BME280;1921;49.368;11.068;2023-05-12T04:20:53;97414.56;;;10.77;100.00
3812;BME280;1921;49.368;11.068;2023-05-12T04:23:19;97388.69;;;10.61;100.00
3812;BME280;1921;49.368;11.068;2023-05-12T04:25:45;97408.94;;;10.59;100.00
3812;BME280;1921;49.368;11.068;2023-05-12T04:28:11;97433.09;;;10.82;100.00
3812;BME280;1921;49.368;11.068;2023-05-12T04:30:41;97424.63;;;10.80;100.00
3812;BME280;1921;49.368;11.068;2023-05-12T04:33:08;97406.47;;;10.72;100.00
3812;BME280;1921;49.368;11.068;2023-05-12T04:35:34;97371.63;;;10.58;100.00
3812;BME280;1921;49.368;11.068;2023-05-12T04:38:00;97425.34;;;10.89;100.00
3812;BME280;1921;49.368;11.068;2023-05-12T04:40:26;97319.41;;;10.22;100.00
3812;BME280;1921;49.368;11.068;2023-05-12T04:42:52;97407.56;;;10.77;100.00
3812;BME280;1921;49.368;11.068;2023-05-12T04:45:18;97414.84;;;10.82;100.00
3812;BME280;1921;49.368;11.068;2023-05-12T04:47:44;97408.00;;;10.81;100.00
3812;BME280;1921;49.368;11.068;2023-05-12T04:50:10;97399.03;;;10.69;100.00
3812;BME280;1921;49.368;11.068;2023-05-12T04:52:37;97431.56;;;10.88;100.00
3812;BME280;1921;49.368;11.068;2023-05-12T04:55:04;97423.59;;;10.74;100.00
3812;BME280;1921;49.368;11.068;2023-05-12T04:57:30;97449.91;;;10.79;100.00
3812;BME280;1921;49.368;11.068;2023-05-12T04:59:56;97396.00;;;10.36;100.00
3812;BME280;1921;49.368;11.068;2023-05-12T05:02:24;97403.81;;;10.21;100.00
3812;BME280;1921;49.368;11.068;2023-05-12T05:04:50;97423.75;;;10.14;100.00
3812;BME280;1921;49.368;11.068;2023-05-12T05:07:17;97435.53;;;10.24;100.00
3812;BME280;1921;49.368;11.068;2023-05-12T05:09:42;97454.81;;;10.38;100.00
3812;BME280;1921;49.368;11.068;2023-05-12T05:12:08;97436.38;;;10.25;100.00
3812;BME280;1921;49.368;11.068;2023-05-12T05:14:34;97420.25;;;10.21;100.00
3812;BME280;1921;49.368;11.068;2023-05-12T05:16:59;97400.13;;;10.01;100.00
3812;BME280;1921;49.368;11.068;2023-05-12T05:19:26;97476.47;;;10.39;100.00
3812;BME280;1921;49.368;11.068;2023-05-12T05:21:51;97448.09;;;10.21;100.00
3812;BME280;1921;49.368;11.068;2023-05-12T05:24:18;97433.41;;;10.28;100.00
3812;BME280;1921;49.368;11.068;2023-05-12T05:26:44;97298.41;;;9.50;100.00
3812;BME280;1921;49.368;11.068;2023-05-12T05:29:10;97429.88;;;10.36;100.00
3812;BME280;1921;49.368;11.068;2023-05-12T05:31:36;97410.31;;;10.25;100.00
3812;BME280;1921;49.368;11.068;2023-05-12T05:34:01;97420.53;;;10.41;100.00
3812;BME280;1921;49.368;11.068;2023-05-12T05:36:28;97478.69;;;10.71;100.00
3812;BME280;1921;49.368;11.068;2023-05-12T05:38:54;97428.34;;;10.41;100.00
3812;BME280;1921;49.368;11.068;2023-05-12T05:41:20;97435.19;;;10.42;100.00
3812;BME280;1921;49.368;11.068;2023-05-12T05:43:47;97437.91;;;10.34;100.00
3812;BME280;1921;49.368;11.068;2023-05-12T05:46:13;97401.94;;;10.30;100.00
3812;BME280;1921;49.368;11.068;2023-05-12T05:48:38;97482.56;;;10.75;100.00
3812;BME280;1921;49.368;11.068;2023-05-12T05:51:04;97430.78;;;10.58;100.00
3812;BME280;1921;49.368;11.068;2023-05-12T05:53:30;97451.31;;;10.97;100.00
3812;BME280;1921;49.368;11.068;2023-05-12T05:55:56;97425.75;;;10.92;100.00
3812;BME280;1921;49.368;11.068;2023-05-12T05:58:22;97469.03;;;11.01;100.00
3812;BME280;1921;49.368;11.068;2023-05-12T06:00:48;97494.16;;;11.39;100.00
3812;BME280;1921;49.368;11.068;2023-05-12T06:03:14;97440.41;;;11.08;100.00
3812;BME280;1921;49.368;11.068;2023-05-12T06:05:40;97461.75;;;11.33;100.00
3812;BME280;1921;49.368;11.068;2023-05-12T06:08:07;97450.78;;;11.23;100.00
3812;BME280;1921;49.368;11.068;2023-05-12T06:10:35;97452.38;;;11.02;100.00
3812;BME280;1921;49.368;11.068;2023-05-12T06:13:02;97464.44;;;11.03;100.00
3812;BME280;1921;49.368;11.068;2023-05-12T06:15:28;97451.94;;;10.99;100.00
3812;BME280;1921;49.368;11.068;2023-05-12T06:17:54;97479.44;;;11.16;100.00
3812;BME280;1921;49.368;11.068;2023-05-12T06:20:19;97457.88;;;10.93;100.00
3812;BME280;1921;49.368;11.068;2023-05-12T06:22:48;97490.75;;;11.23;100.00
3812;BME280;1921;49.368;11.068;2023-05-12T06:25:13;97482.97;;;11.45;100.00
3812;BME280;1921;49.368;11.068;2023-05-12T06:27:42;97400.66;;;10.55;100.00
3812;BME280;1921;49.368;11.068;2023-05-12T06:30:08;97370.16;;;10.70;100.00
3812;BME280;1921;49.368;11.068;2023-05-12T06:32:34;97477.47;;;11.18;100.00
3812;BME280;1921;49.368;11.068;2023-05-12T06:35:00;97427.81;;;10.75;100.00
3812;BME280;1921;49.368;11.068;2023-05-12T06:37:26;97478.13;;;11.05;100.00
3812;BME280;1921;49.368;11.068;2023-05-12T06:39:53;97489.13;;;11.37;100.00
3812;BME280;1921;49.368;11.068;2023-05-12T06:42:18;97504.34;;;11.55;100.00
3812;BME280;1921;49.368;11.068;2023-05-12T06:44:44;97373.53;;;10.35;100.00
3812;BME280;1921;49.368;11.068;2023-05-12T06:47:10;97432.78;;;11.07;100.00
3812;BME280;1921;49.368;11.068;2023-05-12T06:49:36;97469.16;;;11.94;100.00
3812;BME280;1921;49.368;11.068;2023-05-12T06:52:04;97509.03;;;12.02;100.00
3812;BME280;1921;49.368;11.068;2023-05-12T06:54:31;97506.75;;;12.21;100.00
3812;BME280;1921;49.368;11.068;2023-05-12T06:56:56;97476.34;;;12.13;100.00
3812;BME280;1921;49.368;11.068;2023-05-12T06:59:22;97507.38;;;12.23;100.00
3812;BME280;1921;49.368;11.068;2023-05-12T07:01:48;97405.41;;;11.67;100.00
3812;BME280;1921;49.368;11.068;2023-05-12T07:04:14;97475.44;;;11.99;100.00
3812;BME280;1921;49.368;11.068;2023-05-12T07:06:39;97489.38;;;11.85;100.00
3812;BME280;1921;49.368;11.068;2023-05-12T07:09:06;97483.00;;;11.73;100.00
3812;BME280;1921;49.368;11.068;2023-05-12T07:11:32;97486.88;;;11.77;100.00
3812;BME280;1921;49.368;11.068;2023-05-12T07:13:58;97491.22;;;11.70;100.00
3812;BME280;1921;49.368;11.068;2023-05-12T07:16:24;97528.59;;;12.34;100.00
3812;BME280;1921;49.368;11.068;2023-05-12T07:18:49;97504.81;;;12.29;100.00
3812;BME280;1921;49.368;11.068;2023-05-12T07:21:15;97500.63;;;12.07;100.00
3812;BME280;1921;49.368;11.068;2023-05-12T07:23:41;97404.88;;;11.78;100.00
3812;BME280;1921;49.368;11.068;2023-05-12T07:26:07;97529.13;;;12.86;100.00
3812;BME280;1921;49.368;11.068;2023-05-12T07:28:34;97462.13;;;12.22;100.00
3812;BME280;1921;49.368;11.068;2023-05-12T07:31:02;97487.69;;;12.27;100.00
3812;BME280;1921;49.368;11.068;2023-05-12T07:33:28;97481.06;;;12.24;100.00
3812;BME280;1921;49.368;11.068;2023-05-12T07:35:54;97483.41;;;11.70;100.00
3812;BME280;1921;49.368;11.068;2023-05-12T07:38:21;97541.75;;;12.48;100.00
3812;BME280;1921;49.368;11.068;2023-05-12T07:40:46;97545.69;;;13.00;100.00
3812;BME280;1921;49.368;11.068;2023-05-12T07:43:12;97498.16;;;12.96;100.00
3812;BME280;1921;49.368;11.068;2023-05-12T07:45:38;97510.59;;;12.87;100.00
3812;BME280;1921;49.368;11.068;2023-05-12T07:48:04;97514.56;;;12.77;100.00
3812;BME280;1921;49.368;11.068;2023-05-12T07:50:29;97493.78;;;13.10;100.00
3812;BME280;1921;49.368;11.068;2023-05-12T07:52:58;97540.88;;;13.51;99.53
3812;BME280;1921;49.368;11.068;2023-05-12T07:55:24;97504.22;;;13.64;97.91
3812;BME280;1921;49.368;11.068;2023-05-12T07:57:51;97520.81;;;12.76;100.00
3812;BME280;1921;49.368;11.068;2023-05-12T08:00:17;97500.13;;;12.18;100.00
3812;BME280;1921;49.368;11.068;2023-05-12T08:02:43;97397.47;;;11.32;100.00
3812;BME280;1921;49.368;11.068;2023-05-12T08:05:09;97484.00;;;12.15;100.00
3812;BME280;1921;49.368;11.068;2023-05-12T08:07:37;97499.09;;;12.47;100.00
3812;BME280;1921;49.368;11.068;2023-05-12T08:10:04;97514.38;;;13.19;100.00
3812;BME280;1921;49.368;11.068;2023-05-12T08:12:31;97534.59;;;13.39;99.86
3812;BME280;1921;49.368;11.068;2023-05-12T08:15:00;97507.03;;;13.56;96.81
3812;BME280;1921;49.368;11.068;2023-05-12T08:17:26;97434.34;;;13.04;97.57
3812;BME280;1921;49.368;11.068;2023-05-12T08:19:52;97536.44;;;13.45;100.00
3812;BME280;1921;49.368;11.068;2023-05-12T08:22:20;97505.25;;;13.77;100.00
3812;BME280;1921;49.368;11.068;2023-05-12T08:24:52;97470.72;;;13.40;98.72
3812;BME280;1921;49.368;11.068;2023-05-12T08:27:18;97520.78;;;13.71;96.93
3812;BME280;1921;49.368;11.068;2023-05-12T08:29:45;97522.81;;;14.09;94.20
3812;BME280;1921;49.368;11.068;2023-05-12T08:32:10;97505.25;;;13.09;96.65
3812;BME280;1921;49.368;11.068;2023-05-12T08:34:36;97562.78;;;13.91;98.92
3812;BME280;1921;49.368;11.068;2023-05-12T08:37:02;97512.97;;;14.11;94.39
3812;BME280;1921;49.368;11.068;2023-05-12T08:39:28;97564.00;;;14.28;93.83
3812;BME280;1921;49.368;11.068;2023-05-12T08:44:37;97556.97;;;13.41;99.46
3812;BME280;1921;49.368;11.068;2023-05-12T08:47:04;97521.78;;;13.84;98.74
3812;BME280;1921;49.368;11.068;2023-05-12T08:49:32;97543.19;;;14.73;90.37
3812;BME280;1921;49.368;11.068;2023-05-12T08:52:01;97486.94;;;14.16;92.04
3812;BME280;1921;49.368;11.068;2023-05-12T08:54:28;97555.88;;;14.90;91.03
3812;BME280;1921;49.368;11.068;2023-05-12T08:56:57;97524.09;;;15.11;88.09
3812;BME280;1921;49.368;11.068;2023-05-12T08:59:24;97518.38;;;14.43;89.10
3812;BME280;1921;49.368;11.068;2023-05-12T09:01:50;97504.06;;;14.12;91.27
3812;BME280;1921;49.368;11.068;2023-05-12T09:04:16;97501.22;;;13.67;93.99
3812;BME280;1921;49.368;11.068;2023-05-12T09:06:43;97515.34;;;14.72;89.73
3812;BME280;1921;49.368;11.068;2023-05-12T09:09:12;97536.72;;;15.41;87.71
3812;BME280;1921;49.368;11.068;2023-05-12T09:11:39;97522.22;;;14.27;91.02
3812;BME280;1921;49.368;11.068;2023-05-12T09:14:17;97567.25;;;13.36;97.80
3812;BME280;1921;49.368;11.068;2023-05-12T09:16:46;97481.03;;;13.48;96.25
3812;BME280;1921;49.368;11.068;2023-05-12T09:19:20;97539.97;;;13.92;93.91
3812;BME280;1921;49.368;11.068;2023-05-12T09:21:47;97535.22;;;13.00;99.21
3812;BME280;1921;49.368;11.068;2023-05-12T09:24:13;97581.19;;;13.50;99.05
3812;BME280;1921;49.368;11.068;2023-05-12T09:26:47;97565.47;;;13.09;98.93
3812;BME280;1921;49.368;11.068;2023-05-12T09:29:13;97579.09;;;13.32;98.62
3812;BME280;1921;49.368;11.068;2023-05-12T09:31:58;97556.47;;;12.49;100.00
3812;BME280;1921;49.368;11.068;2023-05-12T09:34:32;97597.59;;;12.89;100.00
3812;BME280;1921;49.368;11.068;2023-05-12T09:37:03;97590.31;;;13.19;100.00
3812;BME280;1921;49.368;11.068;2023-05-12T09:39:30;97525.50;;;12.87;100.00
3812;BME280;1921;49.368;11.068;2023-05-12T09:41:56;97555.13;;;12.59;100.00
3812;BME280;1921;49.368;11.068;2023-05-12T09:44:23;97540.00;;;12.27;100.00
3812;BME280;1921;49.368;11.068;2023-05-12T09:46:50;97541.78;;;12.54;100.00
3812;BME280;1921;49.368;11.068;2023-05-12T09:49:22;97546.38;;;12.46;100.00
3812;BME280;1921;49.368;11.068;2023-05-12T09:51:56;97544.91;;;12.99;100.00
3812;BME280;1921;49.368;11.068;2023-05-12T09:54:28;97584.91;;;13.76;100.00
3812;BME280;1921;49.368;11.068;2023-05-12T09:56:59;97574.28;;;14.10;100.00
3812;BME280;1921;49.368;11.068;2023-05-12T09:59:30;97566.66;;;14.48;96.85
3812;BME280;1921;49.368;11.068;2023-05-12T10:01:59;97554.09;;;13.97;97.73
3812;BME280;1921;49.368;11.068;2023-05-12T10:04:28;97577.72;;;14.37;99.38
3812;BME280;1921;49.368;11.068;2023-05-12T10:06:54;97566.19;;;14.98;94.01
3812;BME280;1921;49.368;11.068;2023-05-12T10:09:30;97523.69;;;15.52;93.31
3812;BME280;1921;49.368;11.068;2023-05-12T10:11:58;97578.78;;;16.67;87.56
3812;BME280;1921;49.368;11.068;2023-05-12T10:14:24;97518.53;;;15.77;86.89
3812;BME280;1921;49.368;11.068;2023-05-12T10:16:51;97536.34;;;14.46;94.29
3812;BME280;1921;49.368;11.068;2023-05-12T10:19:24;97467.25;;;14.72;97.23
3812;BME280;1921;49.368;11.068;2023-05-12T10:21:50;97522.69;;;15.92;89.51
3812;BME280;1921;49.368;11.068;2023-05-12T10:24:27;97510.88;;;15.31;86.55
3812;BME280;1921;49.368;11.068;2023-05-12T10:26:59;97578.59;;;16.12;81.02
3812;BME280;1921;49.368;11.068;2023-05-12T10:29:26;97550.78;;;15.98;81.23
3812;BME280;1921;49.368;11.068;2023-05-12T10:31:58;97579.91;;;15.00;88.20
3812;BME280;1921;49.368;11.068;2023-05-12T10:34:33;97565.22;;;14.66;90.10
3812;BME280;1921;49.368;11.068;2023-05-12T10:36:59;97538.97;;;14.59;86.88
3812;BME280;1921;49.368;11.068;2023-05-12T10:39:29;97563.69;;;15.16;88.00
3812;BME280;1921;49.368;11.068;2023-05-12T10:42:07;97575.50;;;14.74;90.41
3812;BME280;1921;49.368;11.068;2023-05-12T10:44:34;97571.38;;;15.11;90.23
3812;BME280;1921;49.368;11.068;2023-05-12T10:47:01;97580.44;;;15.28;89.14
3812;BME280;1921;49.368;11.068;2023-05-12T10:49:40;97542.72;;;15.10;88.66
3812;BME280;1921;49.368;11.068;2023-05-12T10:52:24;97606.25;;;15.38;89.91
3812;BME280;1921;49.368;11.068;2023-05-12T10:54:50;97585.00;;;15.46;90.61
3812;BME280;1921;49.368;11.068;2023-05-12T10:57:26;97528.72;;;15.22;90.48
3812;BME280;1921;49.368;11.068;2023-05-12T10:59:59;97530.81;;;15.00;91.48
3812;BME280;1921;49.368;11.068;2023-05-12T11:02:28;97558.34;;;15.43;90.81
3812;BME280;1921;49.368;11.068;2023-05-12T11:05:01;97568.78;;;15.63;90.21
3812;BME280;1921;49.368;11.068;2023-05-12T11:07:32;97532.34;;;15.73;87.24
3812;BME280;1921;49.368;11.068;2023-05-12T11:10:00;97528.09;;;15.72;88.05
3812;BME280;1921;49.368;11.068;2023-05-12T11:12:31;97533.94;;;15.74;87.44
3812;BME280;1921;49.368;11.068;2023-05-12T11:14:59;97599.72;;;15.99;87.94
3812;BME280;1921;49.368;11.068;2023-05-12T11:17:25;97511.38;;;15.08;89.04
3812;BME280;1921;49.368;11.068;2023-05-12T11:19:52;97227.31;;;12.79;90.30
3812;BME280;1921;49.368;11.068;2023-05-12T11:22:20;97534.72;;;13.92;95.95
3812;BME280;1921;49.368;11.068;2023-05-12T11:24:49;97563.19;;;14.35;96.05
3812;BME280;1921;49.368;11.068;2023-05-12T11:27:20;97584.81;;;14.63;94.88
3812;BME280;1921;49.368;11.068;2023-05-12T11:30:01;97517.31;;;13.51;97.90
3812;BME280;1921;49.368;11.068;2023-05-12T11:32:30;97522.00;;;13.82;97.53
3812;BME280;1921;49.368;11.068;2023-05-12T11:35:17;97600.97;;;14.60;97.18
3812;BME280;1921;49.368;11.068;2023-05-12T11:37:46;97555.34;;;14.35;97.24
3812;BME280;1921;49.368;11.068;2023-05-12T11:40:22;97565.84;;;14.48;97.54
3812;BME280;1921;49.368;11.068;2023-05-12T11:42:49;97544.22;;;14.52;98.66
3812;BME280;1921;49.368;11.068;2023-05-12T11:45:21;97589.16;;;15.02;99.15
3812;BME280;1921;49.368;11.068;2023-05-12T11:47:48;97584.69;;;15.23;99.19
3812;BME280;1921;49.368;11.068;2023-05-12T11:50:20;97592.25;;;15.51;100.00
3812;BME280;1921;49.368;11.068;2023-05-12T11:52:47;97482.63;;;15.20;97.09
3812;BME280;1921;49.368;11.068;2023-05-12T11:55:22;97553.69;;;15.83;97.08
3812;BME280;1921;49.368;11.068;2023-05-12T11:58:00;97541.88;;;15.99;96.62
3812;BME280;1921;49.368;11.068;2023-05-12T12:00:33;97603.97;;;16.56;93.72
3812;BME280;1921;49.368;11.068;2023-05-12T12:03:07;97546.41;;;16.41;91.67
3812;BME280;1921;49.368;11.068;2023-05-12T12:05:33;97578.19;;;16.65;90.23
3812;BME280;1921;49.368;11.068;2023-05-12T12:08:14;97555.25;;;16.47;88.43
3812;BME280;1921;49.368;11.068;2023-05-12T12:10:46;97624.56;;;16.09;88.04
3812;BME280;1921;49.368;11.068;2023-05-12T12:13:22;97467.41;;;14.97;88.99
3812;BME280;1921;49.368;11.068;2023-05-12T12:15:49;97569.66;;;14.78;91.02
3812;BME280;1921;49.368;11.068;2023-05-12T12:18:15;97604.25;;;13.74;100.00
3812;BME280;1921;49.368;11.068;2023-05-12T12:20:46;97580.47;;;13.22;100.00
3812;BME280;1921;49.368;11.068;2023-05-12T12:23:11;97613.50;;;13.23;100.00
3812;BME280;1921;49.368;11.068;2023-05-12T12:25:37;97644.66;;;13.45;100.00
3812;BME280;1921;49.368;11.068;2023-05-12T12:28:03;97625.41;;;13.66;100.00
3812;BME280;1921;49.368;11.068;2023-05-12T12:30:29;97631.31;;;13.40;100.00
3812;BME280;1921;49.368;11.068;2023-05-12T12:32:55;97555.56;;;13.39;100.00
3812;BME280;1921;49.368;11.068;2023-05-12T12:35:21;97600.84;;;13.81;100.00
3812;BME280;1921;49.368;11.068;2023-05-12T12:37:49;97579.44;;;13.70;100.00
3812;BME280;1921;49.368;11.068;2023-05-12T12:40:20;97600.25;;;13.85;100.00
3812;BME280;1921;49.368;11.068;2023-05-12T12:42:46;97598.38;;;13.66;100.00
3812;BME280;1921;49.368;11.068;2023-05-12T12:45:12;97570.69;;;13.43;100.00
3812;BME280;1921;49.368;11.068;2023-05-12T12:47:38;97568.41;;;13.88;100.00
3812;BME280;1921;49.368;11.068;2023-05-12T12:50:06;97630.41;;;14.36;100.00
3812;BME280;1921;49.368;11.068;2023-05-12T12:52:36;97597.56;;;13.65;100.00
3812;BME280;1921;49.368;11.068;2023-05-12T12:55:04;97561.91;;;13.78;100.00
3812;BME280;1921;49.368;11.068;2023-05-12T12:57:30;97643.66;;;14.14;100.00
3812;BME280;1921;49.368;11.068;2023-05-12T12:59:55;97602.94;;;14.45;100.00
3812;BME280;1921;49.368;11.068;2023-05-12T13:02:21;97633.44;;;14.52;97.54
3812;BME280;1921;49.368;11.068;2023-05-12T13:04:47;97629.16;;;14.18;100.00
3812;BME280;1921;49.368;11.068;2023-05-12T13:07:13;97590.66;;;13.44;100.00